createdAt,value
2023-03-05T00:01:55.996Z,7.37
2023-03-05T00:04:23.697Z,6.70
2023-03-05T00:06:51.084Z,7.00
2023-03-05T00:09:18.363Z,6.47
2023-03-05T00:11:45.674Z,6.43
2023-03-05T00:14:13.249Z,6.77
2023-03-05T00:16:40.560Z,7.60
2023-03-05T00:19:07.893Z,6.85
2023-03-05T00:21:37.779Z,6.43
2023-03-05T00:24:08.443Z,6.75
2023-03-05T00:26:36.958Z,7.70
2023-03-05T00:29:05.027Z,7.18
2023-03-05T00:31:34.066Z,6.60
2023-03-05T00:34:04.124Z,6.13
2023-03-05T00:36:31.487Z,6.80
2023-03-05T00:38:59.016Z,5.83
2023-03-05T00:41:26.416Z,7.25
2023-03-05T00:43:53.732Z,6.68
2023-03-05T00:46:21.087Z,6.85
2023-03-05T00:48:48.463Z,6.78
2023-03-05T00:51:15.826Z,5.77
2023-03-05T00:53:43.183Z,6.10
2023-03-05T00:56:10.557Z,6.07
2023-03-05T00:58:38.183Z,6.15
2023-03-05T01:01:05.578Z,6.65
2023-03-05T01:03:33.565Z,6.50
2023-03-05T01:06:01.369Z,6.30
2023-03-05T01:08:28.955Z,6.60
2023-03-05T01:10:56.277Z,6.15
2023-03-05T01:13:23.621Z,6.32
2023-03-05T01:15:51.273Z,6.07
2023-03-05T01:18:19.204Z,6.25
2023-03-05T01:20:47.250Z,6.07
2023-03-05T01:23:15.053Z,6.28
2023-03-05T01:25:42.654Z,7.22
2023-03-05T01:28:10.377Z,6.50
2023-03-05T01:30:38.133Z,7.28
2023-03-05T01:33:05.389Z,6.60
2023-03-05T01:35:32.725Z,7.43
2023-03-05T01:38:00.144Z,7.18
2023-03-05T01:40:29.518Z,6.83
2023-03-05T01:43:00.477Z,6.70
2023-03-05T01:45:32.839Z,7.50
2023-03-05T01:48:00.635Z,7.10
2023-03-05T01:50:29.042Z,7.80
2023-03-05T01:52:59.498Z,8.43
2023-03-05T01:55:27.373Z,8.50
2023-03-05T01:58:13.067Z,8.02
2023-03-05T02:00:45.285Z,7.43
2023-03-05T02:03:12.719Z,9.32
2023-03-05T02:05:41.261Z,8.50
2023-03-05T02:08:09.938Z,9.13
2023-03-05T02:10:42.464Z,8.63
2023-03-05T02:13:14.787Z,9.35
2023-03-05T02:15:42.103Z,9.10
2023-03-05T02:18:10.108Z,9.90
2023-03-05T02:20:47.713Z,9.27
2023-03-05T02:23:15.178Z,9.05
2023-03-05T02:25:42.695Z,8.77
2023-03-05T02:28:30.701Z,9.00
2023-03-05T02:30:58.059Z,8.77
2023-03-05T02:33:25.922Z,8.68
2023-03-05T02:35:53.332Z,9.60
2023-03-05T02:38:20.919Z,8.90
2023-03-05T02:40:48.219Z,9.30
2023-03-05T02:43:17.062Z,9.57
2023-03-05T02:45:44.469Z,9.13
2023-03-05T02:48:12.028Z,9.05
2023-03-05T02:50:39.904Z,8.88
2023-03-05T02:53:07.731Z,9.68
2023-03-05T02:55:35.152Z,8.60
2023-03-05T02:58:02.679Z,8.75
2023-03-05T03:00:30.227Z,8.32
2023-03-05T03:02:57.529Z,9.02
2023-03-05T03:05:24.979Z,9.40
2023-03-05T03:07:52.292Z,8.60
2023-03-05T03:10:19.683Z,8.50
2023-03-05T03:12:47.051Z,7.90
2023-03-05T03:15:15.813Z,9.02
2023-03-05T03:17:43.202Z,8.45
2023-03-05T03:20:13.988Z,7.93
2023-03-05T03:22:41.761Z,8.15
2023-03-05T03:25:09.318Z,8.80
2023-03-05T03:27:36.713Z,9.77
2023-03-05T03:30:05.350Z,8.45
2023-03-05T03:32:33.011Z,8.20
2023-03-05T03:35:00.633Z,8.73
2023-03-05T03:37:27.876Z,8.82
2023-03-05T03:39:55.216Z,7.68
2023-03-05T03:42:22.975Z,9.05
2023-03-05T03:44:50.950Z,8.90
2023-03-05T03:47:18.428Z,8.85
2023-03-05T03:49:45.751Z,8.20
2023-03-05T03:52:13.021Z,8.63
2023-03-05T03:54:40.293Z,7.95
2023-03-05T03:57:07.575Z,8.07
2023-03-05T03:59:34.870Z,8.13
2023-03-05T04:02:02.152Z,9.63
2023-03-05T04:04:30.465Z,8.55
2023-03-05T04:06:57.862Z,8.55
2023-03-05T04:09:25.128Z,8.83
2023-03-05T04:11:52.401Z,8.35
2023-03-05T04:14:19.672Z,9.00
2023-03-05T04:16:46.958Z,8.60
2023-03-05T04:19:14.242Z,8.35
2023-03-05T04:21:41.808Z,8.07
2023-03-05T04:24:09.342Z,8.45
2023-03-05T04:26:36.608Z,9.40
2023-03-05T04:29:03.894Z,8.85
2023-03-05T04:31:31.178Z,8.93
2023-03-05T04:33:59.727Z,8.07
2023-03-05T04:36:27.038Z,7.90
2023-03-05T04:38:54.372Z,7.88
2023-03-05T04:41:21.613Z,9.10
2023-03-05T04:43:48.944Z,9.30
2023-03-05T04:46:16.294Z,10.23
2023-03-05T04:48:43.600Z,9.63
2023-03-05T04:51:10.848Z,9.77
2023-03-05T04:53:38.151Z,9.57
2023-03-05T04:56:05.819Z,8.93
2023-03-05T04:58:33.104Z,9.13
2023-03-05T05:01:01.867Z,9.20
2023-03-05T05:03:29.291Z,8.68
2023-03-05T05:05:57.324Z,9.48
2023-03-05T05:08:24.780Z,8.45
2023-03-05T05:11:01.528Z,8.07
2023-03-05T05:13:29.036Z,9.48
2023-03-05T05:15:56.629Z,7.80
2023-03-05T05:18:24.238Z,8.20
2023-03-05T05:20:51.629Z,8.60
2023-03-05T05:23:18.969Z,8.47
2023-03-05T05:25:46.281Z,8.30
2023-03-05T05:28:13.570Z,8.70
2023-03-05T05:30:40.848Z,8.25
2023-03-05T05:33:08.191Z,8.63
2023-03-05T05:35:39.605Z,8.70
2023-03-05T05:38:06.937Z,8.57
2023-03-05T05:40:34.222Z,7.93
2023-03-05T05:43:01.639Z,9.48
2023-03-05T05:45:29.000Z,8.68
2023-03-05T05:47:56.375Z,9.50
2023-03-05T05:50:23.924Z,8.68
2023-03-05T05:52:52.060Z,9.75
2023-03-05T05:55:19.530Z,8.18
2023-03-05T05:57:46.838Z,8.48
2023-03-05T06:00:14.848Z,8.13
2023-03-05T06:02:42.700Z,9.05
2023-03-05T06:05:12.159Z,9.27
2023-03-05T06:07:39.463Z,9.13
2023-03-05T06:10:07.633Z,8.85
2023-03-05T06:12:35.222Z,9.10
2023-03-05T06:15:02.481Z,8.98
2023-03-05T06:17:31.041Z,9.70
2023-03-05T06:19:59.060Z,8.02
2023-03-05T06:22:26.305Z,8.27
2023-03-05T06:24:53.638Z,8.30
2023-03-05T06:27:22.142Z,8.90
2023-03-05T06:29:52.798Z,9.27
2023-03-05T06:32:20.772Z,8.90
2023-03-05T06:34:48.378Z,9.18
2023-03-05T06:37:15.743Z,9.03
2023-03-05T06:39:43.895Z,8.52
2023-03-05T06:42:11.362Z,9.48
2023-03-05T06:44:41.597Z,9.15
2023-03-05T06:47:10.609Z,9.75
2023-03-05T06:49:38.633Z,10.17
2023-03-05T06:52:06.862Z,9.65
2023-03-05T06:54:34.490Z,8.95
2023-03-05T06:57:02.013Z,8.98
2023-03-05T06:59:29.528Z,9.40
2023-03-05T07:01:56.791Z,9.27
2023-03-05T07:04:24.529Z,11.07
2023-03-05T07:06:51.814Z,9.55
2023-03-05T07:09:19.810Z,9.40
2023-03-05T07:11:47.121Z,9.88
2023-03-05T07:14:14.421Z,8.77
2023-03-05T07:16:41.764Z,10.48
2023-03-05T07:19:11.020Z,10.02
2023-03-05T07:21:39.889Z,9.77
2023-03-05T07:24:07.590Z,9.48
2023-03-05T07:26:34.947Z,9.90
2023-03-05T07:29:02.643Z,9.30
2023-03-05T07:31:32.779Z,9.77
2023-03-05T07:34:00.839Z,9.88
2023-03-05T07:36:28.220Z,8.63
2023-03-05T07:38:55.517Z,7.77
2023-03-05T07:41:23.691Z,9.85
2023-03-05T07:43:53.156Z,9.90
2023-03-05T07:46:21.856Z,8.95
2023-03-05T07:48:49.170Z,9.07
2023-03-05T07:51:18.105Z,9.23
2023-03-05T07:53:46.290Z,9.77
2023-03-05T07:56:13.693Z,10.52
2023-03-05T07:58:41.037Z,10.43
2023-03-05T08:01:14.055Z,9.77
2023-03-05T08:03:42.126Z,9.97
2023-03-05T08:06:09.857Z,9.45
2023-03-05T08:08:37.233Z,9.20
2023-03-05T08:11:09.137Z,8.90
2023-03-05T08:13:36.511Z,8.80
2023-03-05T08:16:17.506Z,9.27
2023-03-05T08:18:45.047Z,8.85
2023-03-05T08:21:23.590Z,9.50
2023-03-05T08:23:50.954Z,9.55
2023-03-05T08:26:20.220Z,9.27
2023-03-05T08:28:47.821Z,9.30
2023-03-05T08:31:15.980Z,9.07
2023-03-05T08:33:43.370Z,9.32
2023-03-05T08:36:10.765Z,9.10
2023-03-05T08:38:38.094Z,10.02
2023-03-05T08:41:05.672Z,9.73
2023-03-05T08:43:33.302Z,9.68
2023-03-05T08:46:00.947Z,8.88
2023-03-05T08:48:28.747Z,9.25
2023-03-05T08:50:56.580Z,8.65
2023-03-05T08:53:24.164Z,8.87
2023-03-05T08:55:55.811Z,9.35
2023-03-05T08:58:23.161Z,9.95
2023-03-05T09:00:50.679Z,8.80
2023-03-05T09:03:18.134Z,8.40
2023-03-05T09:05:45.418Z,9.03
2023-03-05T09:08:12.736Z,8.40
2023-03-05T09:10:42.271Z,8.68
2023-03-05T09:13:09.934Z,8.95
2023-03-05T09:15:37.375Z,8.90
2023-03-05T09:18:04.790Z,8.40
2023-03-05T09:20:32.127Z,8.55
2023-03-05T09:22:59.420Z,8.90
2023-03-05T09:25:26.955Z,8.02
2023-03-05T09:27:54.605Z,8.98
2023-03-05T09:30:21.923Z,9.07
2023-03-05T09:32:51.192Z,8.57
2023-03-05T09:35:18.569Z,6.47
2023-03-05T09:37:45.853Z,7.10
2023-03-05T09:40:17.347Z,8.43
2023-03-05T09:42:53.631Z,7.93
2023-03-05T09:45:49.353Z,9.30
2023-03-05T09:48:22.913Z,10.07
2023-03-05T09:51:01.479Z,9.13
2023-03-05T09:53:28.749Z,9.20
2023-03-05T09:55:57.868Z,9.50
2023-03-05T09:58:25.108Z,9.93
2023-03-05T10:00:57.848Z,11.48
2023-03-05T10:03:51.797Z,11.52
2023-03-05T10:06:26.577Z,12.50
2023-03-05T10:09:12.098Z,10.57
2023-03-05T10:12:01.498Z,11.05
2023-03-05T10:14:35.984Z,11.38
2023-03-05T10:17:11.249Z,11.30
2023-03-05T10:19:45.779Z,10.70
2023-03-05T10:22:26.627Z,10.60
2023-03-05T10:25:19.603Z,10.85
2023-03-05T10:27:54.210Z,10.32
2023-03-05T10:30:39.461Z,10.30
2023-03-05T10:33:21.167Z,11.48
2023-03-05T10:36:00.505Z,10.33
2023-03-05T10:39:00.046Z,10.98
2023-03-05T10:41:27.455Z,10.98
2023-03-05T10:44:18.977Z,11.43
2023-03-05T10:46:46.282Z,11.52
2023-03-05T10:49:33.264Z,12.10
2023-03-05T10:52:10.746Z,11.18
2023-03-05T10:54:41.880Z,10.13
2023-03-05T10:57:31.162Z,9.43
2023-03-05T11:00:01.958Z,9.35
2023-03-05T11:02:29.309Z,9.07
2023-03-05T11:04:56.756Z,9.00
2023-03-05T11:07:24.136Z,9.13
2023-03-05T11:10:00.595Z,10.18
2023-03-05T11:12:35.061Z,10.48
2023-03-05T11:15:14.508Z,10.87
2023-03-05T11:17:49.125Z,9.00
2023-03-05T11:20:29.020Z,10.25
2023-03-05T11:23:23.702Z,9.55
2023-03-05T11:26:01.212Z,10.07
2023-03-05T11:28:33.360Z,8.73
2023-03-05T11:31:08.332Z,9.85
2023-03-05T11:33:36.668Z,9.50
2023-03-05T11:36:27.614Z,9.32
2023-03-05T11:39:08.115Z,9.63
2023-03-05T11:41:48.494Z,9.77
2023-03-05T11:44:26.409Z,9.95
2023-03-05T11:46:59.025Z,10.00
2023-03-05T11:49:28.315Z,9.52
2023-03-05T11:52:10.846Z,10.13
2023-03-05T11:55:03.540Z,9.57
2023-03-05T11:57:40.926Z,10.43
2023-03-05T12:00:12.474Z,9.52
2023-03-05T12:02:39.847Z,9.73
2023-03-05T12:05:07.796Z,10.15
2023-03-05T12:07:37.735Z,9.97
2023-03-05T12:10:05.355Z,9.13
2023-03-05T12:12:58.075Z,10.15
2023-03-05T12:15:47.728Z,10.32
2023-03-05T12:18:20.957Z,9.30
2023-03-05T12:20:54.178Z,9.07
2023-03-05T12:23:21.913Z,7.05
2023-03-05T12:25:53.559Z,9.80
2023-03-05T12:28:36.097Z,8.32
2023-03-05T12:31:25.513Z,8.65
2023-03-05T12:33:52.762Z,9.50
2023-03-05T12:36:22.991Z,8.52
2023-03-05T12:38:53.443Z,9.02
2023-03-05T12:41:23.540Z,8.20
2023-03-05T12:44:06.459Z,8.18
2023-03-05T12:46:40.914Z,7.60
2023-03-05T12:49:20.615Z,9.77
2023-03-05T12:51:48.804Z,8.38
2023-03-05T12:54:41.404Z,9.57
2023-03-05T12:57:19.510Z,9.43
2023-03-05T12:59:55.045Z,8.53
2023-03-05T13:02:44.287Z,8.95
2023-03-05T13:05:20.323Z,8.27
2023-03-05T13:07:48.707Z,4.95
2023-03-05T13:10:29.167Z,7.60
2023-03-05T13:12:57.476Z,7.33
2023-03-05T13:15:25.347Z,8.27
2023-03-05T13:18:03.614Z,9.70
2023-03-05T13:20:41.122Z,6.95
2023-03-05T13:23:23.488Z,8.93
2023-03-05T13:26:15.760Z,8.17
2023-03-05T13:28:43.523Z,9.23
2023-03-05T13:31:18.769Z,9.38
2023-03-05T13:34:05.810Z,8.27
2023-03-05T13:36:33.281Z,7.55
2023-03-05T13:39:00.830Z,8.07
2023-03-05T13:41:28.396Z,8.82
2023-03-05T13:44:00.282Z,9.90
2023-03-05T13:46:34.426Z,9.70
2023-03-05T13:49:24.332Z,9.55
2023-03-05T13:51:56.003Z,9.00
2023-03-05T13:54:24.046Z,9.73
2023-03-05T13:56:52.707Z,11.18
2023-03-05T13:59:21.854Z,8.35
2023-03-05T14:01:49.530Z,10.05
2023-03-05T14:04:22.282Z,8.87
2023-03-05T14:07:25.025Z,8.20
2023-03-05T14:09:52.392Z,7.72
2023-03-05T14:12:37.958Z,9.00
2023-03-05T14:15:26.586Z,10.02
2023-03-05T14:18:13.299Z,9.33
2023-03-05T14:20:41.355Z,8.18
2023-03-05T14:23:26.899Z,8.57
2023-03-05T14:26:13.555Z,8.73
2023-03-05T14:28:40.899Z,9.95
2023-03-05T14:31:14.609Z,8.93
2023-03-05T14:33:41.920Z,7.70
2023-03-05T14:36:09.414Z,8.18
2023-03-05T14:38:41.656Z,7.47
2023-03-05T14:41:41.053Z,6.65
2023-03-05T14:44:12.751Z,6.90
2023-03-05T14:46:40.634Z,5.05
2023-03-05T14:49:08.080Z,6.40
2023-03-05T14:51:38.958Z,6.15
2023-03-05T14:54:06.301Z,5.80
2023-03-05T14:56:33.835Z,4.93
2023-03-05T14:59:01.128Z,6.05
2023-03-05T15:01:28.493Z,6.70
2023-03-05T15:03:55.848Z,6.65
2023-03-05T15:06:34.438Z,5.32
2023-03-05T15:09:02.029Z,5.73
2023-03-05T15:11:29.290Z,6.75
2023-03-05T15:13:56.602Z,6.32
2023-03-05T15:16:23.942Z,5.45
2023-03-05T15:18:51.272Z,7.22
2023-03-05T15:21:18.527Z,5.77
2023-03-05T15:23:45.762Z,5.82
2023-03-05T15:26:14.329Z,7.40
2023-03-05T15:28:41.913Z,6.65
2023-03-05T15:31:09.350Z,6.22
2023-03-05T15:33:36.685Z,6.80
2023-03-05T15:36:04.342Z,6.20
2023-03-05T15:38:31.648Z,6.45
2023-03-05T15:41:01.539Z,6.68
2023-03-05T15:43:30.671Z,6.00
2023-03-05T15:45:58.013Z,6.40
2023-03-05T15:48:25.329Z,5.70
2023-03-05T15:50:52.619Z,5.65
2023-03-05T15:53:21.626Z,6.32
2023-03-05T15:55:48.923Z,6.10
2023-03-05T15:58:16.890Z,4.70
2023-03-05T16:00:44.507Z,5.78
2023-03-05T16:03:12.098Z,6.47
2023-03-05T16:05:39.455Z,6.18
2023-03-05T16:08:06.994Z,6.25
2023-03-05T16:10:35.731Z,6.00
2023-03-05T16:13:05.756Z,6.00
2023-03-05T16:15:33.309Z,6.05
2023-03-05T16:18:02.591Z,5.60
2023-03-05T16:20:29.871Z,6.80
2023-03-05T16:22:57.375Z,6.50
2023-03-05T16:25:24.778Z,6.55
2023-03-05T16:27:52.143Z,6.53
2023-03-05T16:30:19.694Z,6.55
2023-03-05T16:32:47.022Z,6.75
2023-03-05T16:35:14.411Z,5.23
2023-03-05T16:37:41.915Z,6.53
2023-03-05T16:40:10.409Z,6.68
2023-03-05T16:42:37.710Z,5.97
2023-03-05T16:45:05.498Z,6.80
2023-03-05T16:47:32.895Z,6.93
2023-03-05T16:50:01.009Z,6.43
2023-03-05T16:52:28.591Z,5.82
2023-03-05T16:54:56.011Z,5.50
2023-03-05T16:57:25.679Z,5.07
2023-03-05T16:59:54.117Z,5.10
2023-03-05T17:02:21.597Z,5.25
2023-03-05T17:04:50.539Z,5.45
2023-03-05T17:07:18.161Z,5.22
2023-03-05T17:09:46.547Z,5.70
2023-03-05T17:12:13.917Z,4.90
2023-03-05T17:14:41.276Z,5.13
2023-03-05T17:17:08.677Z,5.70
2023-03-05T17:19:35.988Z,5.00
2023-03-05T17:22:04.154Z,6.20
2023-03-05T17:24:33.031Z,4.77
2023-03-05T17:27:00.788Z,4.38
2023-03-05T17:29:28.667Z,5.45
2023-03-05T17:31:56.068Z,4.30
2023-03-05T17:34:35.735Z,4.85
2023-03-05T17:37:04.364Z,4.40
2023-03-05T17:39:31.693Z,4.68
2023-03-05T17:41:59.043Z,5.10
2023-03-05T17:44:26.341Z,5.38
2023-03-05T17:46:53.596Z,5.38
2023-03-05T17:49:20.884Z,6.10
2023-03-05T17:51:48.164Z,5.75
2023-03-05T17:54:15.480Z,5.20
2023-03-05T17:56:42.767Z,5.50
2023-03-05T17:59:10.205Z,5.90
2023-03-05T18:01:37.507Z,5.37
2023-03-05T18:04:05.140Z,4.90
2023-03-05T18:06:32.475Z,4.30
2023-03-05T18:08:59.790Z,5.18
2023-03-05T18:11:27.658Z,4.20
2023-03-05T18:13:54.921Z,4.27
2023-03-05T18:16:23.579Z,4.18
2023-03-05T18:18:51.859Z,4.80
2023-03-05T18:21:21.032Z,4.75
2023-03-05T18:23:48.763Z,5.38
2023-03-05T18:26:16.101Z,5.77
2023-03-05T18:28:43.561Z,5.25
2023-03-05T18:31:10.937Z,5.50
2023-03-05T18:33:39.036Z,5.72
2023-03-05T18:36:06.796Z,6.15
2023-03-05T18:38:35.078Z,4.80
2023-03-05T18:41:02.854Z,4.95
2023-03-05T18:43:30.350Z,5.18
2023-03-05T18:45:58.515Z,5.15
2023-03-05T18:48:25.925Z,5.50
2023-03-05T18:50:53.502Z,5.33
2023-03-05T18:53:21.774Z,5.10
2023-03-05T18:55:51.289Z,5.30
2023-03-05T18:58:19.061Z,5.22
2023-03-05T19:00:47.248Z,5.55
2023-03-05T19:03:15.653Z,5.60
2023-03-05T19:05:43.074Z,4.85
2023-03-05T19:08:10.688Z,5.50
2023-03-05T19:10:38.086Z,5.53
2023-03-05T19:13:41.131Z,5.55
2023-03-05T19:16:25.854Z,5.43
2023-03-05T19:19:25.562Z,5.60
2023-03-05T19:21:54.239Z,6.13
2023-03-05T19:24:22.039Z,5.65
2023-03-05T19:26:50.191Z,5.80
2023-03-05T19:29:17.520Z,5.20
2023-03-05T19:31:44.820Z,6.28
2023-03-05T19:34:12.380Z,5.70
2023-03-05T19:36:39.729Z,5.70
2023-03-05T19:39:07.308Z,5.53
2023-03-05T19:41:34.816Z,6.43
2023-03-05T19:44:02.283Z,5.32
2023-03-05T19:46:29.720Z,6.00
2023-03-05T19:48:57.060Z,6.20
2023-03-05T19:51:25.012Z,6.10
2023-03-05T19:53:52.722Z,5.63
2023-03-05T19:56:20.019Z,5.82
2023-03-05T19:58:48.970Z,5.63
2023-03-05T20:01:26.660Z,5.43
2023-03-05T20:03:55.584Z,6.03
2023-03-05T20:06:23.188Z,5.53
2023-03-05T20:08:50.526Z,5.50
2023-03-05T20:11:17.976Z,6.15
2023-03-05T20:13:45.575Z,5.50
2023-03-05T20:16:26.869Z,6.35
2023-03-05T20:18:55.046Z,6.13
2023-03-05T20:21:24.015Z,5.47
2023-03-05T20:23:51.930Z,5.60
2023-03-05T20:26:20.094Z,5.65
2023-03-05T20:28:48.144Z,5.30
2023-03-05T20:31:18.154Z,5.70
2023-03-05T20:33:45.711Z,6.18
2023-03-05T20:36:13.084Z,5.82
2023-03-05T20:38:40.396Z,5.63
2023-03-05T20:41:09.723Z,5.93
2023-03-05T20:43:39.137Z,6.20
2023-03-05T20:46:06.582Z,5.50
2023-03-05T20:48:34.147Z,6.70
2023-03-05T20:51:16.158Z,5.85
2023-03-05T20:53:43.488Z,5.75
2023-03-05T20:56:10.760Z,5.93
2023-03-05T20:58:38.149Z,7.70
2023-03-05T21:01:05.863Z,7.38
2023-03-05T21:03:33.166Z,7.72
2023-03-05T21:06:02.456Z,7.70
2023-03-05T21:08:29.755Z,6.57
2023-03-05T21:10:57.445Z,7.53
2023-03-05T21:13:25.568Z,6.93
2023-03-05T21:15:52.827Z,6.70
2023-03-05T21:18:20.163Z,7.40
2023-03-05T21:20:47.470Z,6.57
2023-03-05T21:23:14.779Z,6.82
2023-03-05T21:25:42.061Z,7.53
2023-03-05T21:28:16.559Z,7.65
2023-03-05T21:30:46.129Z,6.55
2023-03-05T21:33:15.270Z,6.63
2023-03-05T21:35:42.688Z,6.57
2023-03-05T21:38:10.215Z,7.00
2023-03-05T21:40:40.044Z,7.45
2023-03-05T21:43:07.356Z,7.30
2023-03-05T21:45:34.687Z,7.03
2023-03-05T21:48:02.021Z,6.85
2023-03-05T21:50:29.536Z,6.85
2023-03-05T21:52:56.838Z,5.90
2023-03-05T21:55:55.206Z,6.57
2023-03-05T21:58:54.682Z,6.90
2023-03-05T22:01:22.195Z,5.82
2023-03-05T22:03:49.561Z,7.10
2023-03-05T22:06:17.620Z,6.55
2023-03-05T22:08:44.929Z,6.85
2023-03-05T22:11:13.567Z,6.13
2023-03-05T22:13:40.883Z,6.60
2023-03-05T22:16:09.326Z,7.10
2023-03-05T22:18:36.722Z,7.68
2023-03-05T22:21:04.245Z,6.63
2023-03-05T22:23:34.131Z,5.97
2023-03-05T22:26:03.378Z,6.93
2023-03-05T22:28:31.163Z,6.65
2023-03-05T22:30:58.769Z,6.70
2023-03-05T22:33:27.073Z,6.97
2023-03-05T22:35:54.408Z,6.23
2023-03-05T22:38:21.848Z,6.20
2023-03-05T22:40:49.389Z,6.60
2023-03-05T22:43:17.581Z,6.55
2023-03-05T22:45:44.992Z,6.97
2023-03-05T22:48:12.723Z,6.90
2023-03-05T22:50:40.687Z,7.45
2023-03-05T22:53:10.258Z,7.50
2023-03-05T22:55:41.380Z,7.43
2023-03-05T22:58:08.823Z,7.57
2023-03-05T23:00:36.148Z,6.90
2023-03-05T23:03:03.561Z,6.97
2023-03-05T23:05:30.869Z,7.35
2023-03-05T23:07:58.243Z,6.70
2023-03-05T23:10:27.254Z,7.57
2023-03-05T23:12:55.501Z,7.17
2023-03-05T23:15:27.705Z,6.70
2023-03-05T23:17:55.073Z,7.43
2023-03-05T23:20:24.631Z,7.47
2023-03-05T23:22:53.116Z,7.57
2023-03-05T23:25:20.791Z,7.33
2023-03-05T23:27:48.398Z,7.70
2023-03-05T23:30:28.213Z,7.20
2023-03-05T23:32:58.366Z,7.45
2023-03-05T23:35:28.086Z,6.90
2023-03-05T23:37:55.948Z,7.60
2023-03-05T23:40:34.734Z,7.10
2023-03-05T23:43:02.027Z,7.22
2023-03-05T23:45:29.669Z,6.95
2023-03-05T23:47:57.349Z,6.93
2023-03-05T23:50:29.490Z,7.47
2023-03-05T23:52:56.971Z,7.50
2023-03-05T23:55:29.206Z,7.55
2023-03-05T23:57:56.719Z,7.22
